Time;durP1;ratioP1;P1;durP2;ratioP2;P2;SDS_P1;SDS_P2;PMS_P1;PMS_P2;Temp;Humidity;BMP_temperature;BMP_pressure;BME280_temperature;BME280_humidity;BME280_pressure;Samples;Min_cycle;Max_cycle;Signal;HPM_P1;HPM_P2
2024/02/14 00:04:22;;;;;;;2.13;0.77;;;;;;;12.03;58.61;101126.75;10371612;28;20359;-60
2024/02/14 00:09:22;;;;;;;3.45;1.25;;;;;;;12.02;58.98;101117.97;10383804;28;20042;-61
2024/02/14 00:14:23;;;;;;;1.20;0.90;;;;;;;12.03;58.92;101118.78;10370539;28;20030;-61
2024/02/14 00:19:23;;;;;;;2.05;1.02;;;;;;;12.03;58.27;101116.94;10369350;28;20291;-60
2024/02/14 00:24:28;;;;;;;2.88;1.10;;;;;;;12.02;58.70;101106.56;10370366;28;20025;-60
2024/02/14 00:29:28;;;;;;;1.60;0.85;;;;;;;12.04;58.56;101101.78;10369996;28;20080;-61
2024/02/14 00:34:28;;;;;;;0.87;0.70;;;;;;;12.04;58.43;101097.28;10369403;28;20128;-60
2024/02/14 00:39:29;;;;;;;1.95;0.90;;;;;;;12.03;57.63;101085.03;10365501;28;20295;-61
2024/02/14 00:44:29;;;;;;;1.35;0.90;;;;;;;12.03;58.42;101089.56;10367858;28;20030;-61
2024/02/14 00:49:30;;;;;;;1.85;1.30;;;;;;;12.03;58.78;101090.34;10382322;28;20048;-61
2024/02/14 00:54:30;;;;;;;2.17;1.27;;;;;;;12.02;58.40;101087.94;10397200;28;20094;-60
2024/02/14 00:59:31;;;;;;;1.50;0.93;;;;;;;12.02;58.57;101086.09;10409115;28;20067;-61
2024/02/14 01:04:31;;;;;;;1.50;1.00;;;;;;;12.00;58.75;101070.41;10408797;28;20029;-61
2024/02/14 01:09:31;;;;;;;1.07;0.90;;;;;;;12.01;59.01;101079.16;10402319;28;20091;-60
2024/02/14 01:14:32;;;;;;;1.48;0.90;;;;;;;12.01;57.77;101071.19;10367834;28;20857;-61
2024/02/14 01:19:33;;;;;;;1.10;0.93;;;;;;;11.99;58.22;101067.97;10368618;28;20554;-60
2024/02/14 01:24:34;;;;;;;1.63;1.00;;;;;;;12.00;59.18;101067.75;10366569;28;20064;-61
2024/02/14 01:29:35;;;;;;;1.90;1.25;;;;;;;12.00;58.31;101065.06;10366336;28;20041;-60
2024/02/14 01:34:35;;;;;;;0.95;0.75;;;;;;;11.99;57.71;101065.31;10368932;28;20033;-60
2024/02/14 01:39:36;;;;;;;2.78;1.27;;;;;;;12.00;58.77;101069.59;10367289;28;20481;-61
2024/02/14 01:44:36;;;;;;;1.52;0.80;;;;;;;11.99;58.63;101060.81;10393434;28;20445;-61
2024/02/14 01:49:37;;;;;;;1.35;0.82;;;;;;;11.99;58.96;101065.31;10408306;28;20048;-61
2024/02/14 01:54:37;;;;;;;1.38;0.80;;;;;;;12.01;58.33;101068.53;10405668;28;20587;-61
2024/02/14 01:59:38;;;;;;;1.17;0.82;;;;;;;12.00;58.13;101065.06;10406329;28;20134;-61
2024/02/14 02:04:38;;;;;;;2.00;0.93;;;;;;;12.00;58.50;101069.59;10405692;28;20147;-61
2024/02/14 02:09:38;;;;;;;1.10;0.85;;;;;;;12.00;57.94;101064.28;10400183;28;20137;-61
2024/02/14 02:14:40;;;;;;;1.10;0.60;;;;;;;11.98;58.23;101053.88;10365944;28;20030;-61
2024/02/14 02:19:40;;;;;;;0.80;0.60;;;;;;;11.99;59.13;101068.78;10364814;28;20625;-60
2024/02/14 02:24:40;;;;;;;0.88;0.65;;;;;;;11.98;57.88;101064.53;10364177;28;20030;-61
2024/02/14 02:29:41;;;;;;;0.95;0.60;;;;;;;11.98;59.07;101069.84;10366063;28;20026;-61
2024/02/14 02:34:41;;;;;;;1.10;0.85;;;;;;;11.99;58.49;101067.97;10404553;28;20028;-61
2024/02/14 02:39:41;;;;;;;1.30;0.80;;;;;;;11.98;58.34;101064.53;10405993;28;20497;-61
2024/02/14 02:44:42;;;;;;;2.50;1.20;;;;;;;11.98;58.68;101061.88;10404421;28;20402;-61
2024/02/14 02:49:44;;;;;;;2.40;1.02;;;;;;;11.98;58.01;101072.50;10406251;28;20033;-61
2024/02/14 02:54:44;;;;;;;1.35;0.90;;;;;;;11.98;59.41;101074.34;10405528;28;20017;-61
2024/02/14 02:59:45;;;;;;;1.30;0.90;;;;;;;11.98;57.98;101079.66;10404645;28;20412;-59
2024/02/14 03:04:46;;;;;;;1.55;0.80;;;;;;;11.97;59.19;101072.75;10391185;28;20679;-61
2024/02/14 03:09:47;;;;;;;0.82;0.68;;;;;;;11.98;59.48;101077.00;10386239;28;20073;-60
2024/02/14 03:14:47;;;;;;;0.93;0.67;;;;;;;11.97;59.65;101086.84;10372885;28;20037;-61
2024/02/14 03:19:48;;;;;;;0.83;0.70;;;;;;;11.97;58.19;101086.84;10372985;28;20812;-61
2024/02/14 03:24:49;;;;;;;2.97;0.80;;;;;;;11.99;58.63;101091.91;10368419;28;20280;-61
2024/02/14 03:29:50;;;;;;;1.60;0.80;;;;;;;11.99;58.34;101091.91;10371144;28;20025;-61
2024/02/14 03:34:51;;;;;;;1.48;0.90;;;;;;;11.98;58.09;101090.28;10396546;28;20328;-60
2024/02/14 03:39:51;;;;;;;1.08;0.90;;;;;;;11.98;58.49;101088.44;10370717;28;20370;-61
2024/02/14 03:44:52;;;;;;;1.80;1.08;;;;;;;11.97;59.00;101092.16;10370466;28;20037;-60
2024/02/14 03:49:52;;;;;;;1.10;0.63;;;;;;;11.98;59.09;101095.59;10370922;28;20105;-61
2024/02/14 03:54:52;;;;;;;1.87;0.90;;;;;;;11.96;58.11;101098.50;10371350;28;20375;-61
2024/02/14 03:59:53;;;;;;;2.10;0.85;;;;;;;11.97;58.97;101104.63;10371493;28;20288;-61
2024/02/14 04:04:54;;;;;;;0.93;0.73;;;;;;;11.96;59.27;101103.81;10369501;28;20358;-60
2024/02/14 04:09:54;;;;;;;1.70;0.80;;;;;;;11.96;58.59;101105.69;10383793;28;20054;-60
2024/02/14 04:14:54;;;;;;;0.95;0.70;;;;;;;11.95;58.47;101104.84;10370087;28;20289;-61
2024/02/14 04:19:54;;;;;;;1.63;0.70;;;;;;;11.95;59.31;101112.81;10369295;28;20307;-61
2024/02/14 04:24:56;;;;;;;2.20;1.13;;;;;;;11.95;58.58;101115.47;10370029;28;20018;-61
2024/02/14 04:29:56;;;;;;;1.20;0.73;;;;;;;11.95;59.43;101115.47;10369543;28;20291;-61
2024/02/14 04:34:57;;;;;;;1.60;0.90;;;;;;;11.95;58.39;101117.31;10370090;28;20037;-61
2024/02/14 04:39:58;;;;;;;1.02;0.80;;;;;;;11.96;58.96;101124.28;10370220;28;20037;-61
2024/02/14 04:44:58;;;;;;;0.98;0.60;;;;;;;11.94;58.56;101121.84;10368535;28;20461;-61
2024/02/14 04:49:59;;;;;;;1.67;0.80;;;;;;;11.95;59.28;101128.75;10368439;28;20057;-61
2024/02/14 04:55:00;;;;;;;1.00;0.68;;;;;;;11.96;58.43;101130.41;10369168;28;20296;-60
2024/02/14 05:00:00;;;;;;;1.90;0.85;;;;;;;11.97;59.12;101137.31;10381173;28;20022;-60
2024/02/14 05:05:01;;;;;;;1.63;0.90;;;;;;;11.95;59.55;101141.25;10403529;28;20500;-61
2024/02/14 05:10:01;;;;;;;4.32;1.15;;;;;;;11.95;58.29;101152.69;10407561;28;20304;-61
2024/02/14 05:15:02;;;;;;;1.65;0.88;;;;;;;11.95;58.33;101158.00;10382923;28;20021;-60
2024/02/14 05:20:08;;;;;;;1.67;0.90;;;;;;;11.94;58.92;101159.03;10394184;28;20104;-61
2024/02/14 05:25:09;;;;;;;2.80;1.10;;;;;;;11.94;58.27;101156.38;10407869;28;20031;-61
2024/02/14 05:30:09;;;;;;;2.13;1.13;;;;;;;11.95;59.56;101165.16;10404873;28;20032;-61
2024/02/14 05:35:09;;;;;;;1.20;0.85;;;;;;;11.95;58.20;101171.28;10380552;28;20483;-61
2024/02/14 05:40:10;;;;;;;1.52;0.90;;;;;;;11.95;58.86;101173.94;10365801;28;20037;-61
2024/02/14 05:45:11;;;;;;;2.38;1.42;;;;;;;11.94;58.77;101174.97;10380291;28;20036;-61
2024/02/14 05:50:11;;;;;;;1.88;1.13;;;;;;;11.95;58.36;101175.78;10400367;28;20104;-61
2024/02/14 05:55:12;;;;;;;1.95;1.15;;;;;;;11.95;58.60;101173.13;10407570;28;20021;-61
2024/02/14 06:00:12;;;;;;;2.15;1.02;;;;;;;11.94;59.53;101166.22;10405916;28;20404;-60
2024/02/14 06:05:13;;;;;;;1.48;0.75;;;;;;;11.94;59.62;101176.84;10407291;28;20579;-61
2024/02/14 06:10:13;;;;;;;1.30;0.80;;;;;;;11.94;58.74;101184.81;10394083;28;20485;-60
2024/02/14 06:15:14;;;;;;;1.15;0.75;;;;;;;11.94;58.03;101180.28;10366574;28;20037;-61
2024/02/14 06:20:16;;;;;;;1.90;0.80;;;;;;;11.95;58.47;101186.41;10366149;28;20045;-61
2024/02/14 06:25:16;;;;;;;1.08;0.70;;;;;;;11.95;58.47;101197.03;10365884;28;20378;-61
2024/02/14 06:30:17;;;;;;;2.07;1.23;;;;;;;11.94;59.36;101196.25;10391530;28;20373;-59
2024/02/14 06:35:18;;;;;;;1.42;0.70;;;;;;;11.94;59.33;101212.19;10365485;28;20292;-60
2024/02/14 06:40:19;;;;;;;1.13;0.80;;;;;;;11.93;59.21;101213.22;10394478;28;20374;-61
2024/02/14 06:45:19;;;;;;;1.48;0.68;;;;;;;11.94;58.88;101214.03;10406072;28;20022;-60
2024/02/14 06:50:20;;;;;;;0.90;0.70;;;;;;;11.93;58.53;101217.75;10404897;28;20100;-61
2024/02/14 06:55:20;;;;;;;1.25;0.88;;;;;;;11.93;59.80;101231.03;10354127;28;20292;-61
2024/02/14 07:00:20;;;;;;;1.47;0.90;;;;;;;11.93;58.74;101231.84;10372491;28;20072;-61
2024/02/14 07:05:21;;;;;;;1.50;0.80;;;;;;;11.93;58.75;101239.81;10392397;28;20638;-59
2024/02/14 07:10:21;;;;;;;1.02;0.65;;;;;;;11.93;58.73;101234.50;10392327;28;20056;-61
2024/02/14 07:15:25;;;;;;;1.27;0.77;;;;;;;11.93;59.68;101247.78;10375888;28;20038;-61
2024/02/14 07:20:28;;;;;;;2.20;1.05;;;;;;;11.93;58.65;101242.47;10391784;28;20072;-61
2024/02/14 07:25:28;;;;;;;1.60;0.90;;;;;;;11.93;58.74;101241.66;10406144;28;20480;-61
2024/02/14 07:30:29;;;;;;;1.08;0.80;;;;;;;11.93;58.92;101239.81;10402979;28;20036;-61
2024/02/14 07:35:29;;;;;;;1.20;0.90;;;;;;;11.92;58.88;101248.00;10366239;28;20555;-60
2024/02/14 07:40:33;;;;;;;1.60;1.10;;;;;;;11.92;59.25;101242.69;10357401;28;20330;-61
2024/02/14 07:45:33;;;;;;;1.45;1.00;;;;;;;11.92;58.65;101237.38;10366151;28;20033;-61
2024/02/14 07:50:34;;;;;;;1.40;0.67;;;;;;;11.93;58.66;101241.66;10371033;28;20041;-61
2024/02/14 07:55:34;;;;;;;1.08;0.80;;;;;;;11.95;59.08;101255.50;10373941;28;20300;-61
2024/02/14 08:00:34;;;;;;;1.95;1.05;;;;;;;11.92;58.40;101254.13;10373580;28;20022;-61
2024/02/14 08:05:35;;;;;;;1.67;0.90;;;;;;;11.93;59.91;101262.91;10371409;28;20454;-61
2024/02/14 08:10:35;;;;;;;1.33;1.02;;;;;;;11.93;58.48;101263.72;10398593;28;20300;-61
2024/02/14 08:15:35;;;;;;;1.73;0.88;;;;;;;11.93;59.47;101265.56;10386287;28;20037;-61
2024/02/14 08:20:36;;;;;;;1.13;0.73;;;;;;;11.93;59.52;101273.53;10401611;28;20028;-61
2024/02/14 08:25:36;;;;;;;1.65;1.00;;;;;;;11.93;59.36;101277.00;10413189;28;20763;-61
2024/02/14 08:30:37;;;;;;;2.47;1.25;;;;;;;11.92;58.71;101282.56;10406284;28;20028;-60
2024/02/14 08:35:38;;;;;;;1.88;1.00;;;;;;;11.93;59.74;101286.84;10370923;28;20034;-61
2024/02/14 08:40:38;;;;;;;1.77;1.40;;;;;;;11.93;59.03;101273.53;10371486;28;20140;-61
2024/02/14 08:45:38;;;;;;;1.37;0.90;;;;;;;11.93;59.73;101278.84;10370615;28;20288;-60
2024/02/14 08:50:39;;;;;;;2.10;1.13;;;;;;;11.92;58.77;101282.56;10371726;28;20291;-61
2024/02/14 08:55:40;;;;;;;1.88;0.90;;;;;;;11.92;59.10;101277.25;10371743;28;20026;-61
2024/02/14 09:00:40;;;;;;;1.50;0.90;;;;;;;11.93;59.85;101281.50;10368147;28;20026;-61
2024/02/14 09:05:40;;;;;;;1.08;0.73;;;;;;;11.92;59.27;101280.72;10369491;28;20022;-61
2024/02/14 09:10:41;;;;;;;2.47;1.30;;;;;;;11.93;59.06;101295.59;10382359;28;20045;-61
2024/02/14 09:15:42;;;;;;;2.00;0.90;;;;;;;11.94;59.88;101286.59;10372234;28;20659;-61
2024/02/14 09:20:45;;;;;;;1.58;0.90;;;;;;;11.93;58.77;101292.94;10361863;28;20303;-61
2024/02/14 09:25:47;;;;;;;2.42;1.48;;;;;;;11.94;59.71;101302.53;10368953;28;20048;-61
2024/02/14 09:30:47;;;;;;;1.58;0.88;;;;;;;11.93;59.04;101303.56;10375256;28;20021;-61
2024/02/14 09:35:48;;;;;;;2.00;0.90;;;;;;;11.93;59.68;101308.91;10379559;28;20025;-61
2024/02/14 09:40:53;;;;;;;1.30;0.80;;;;;;;11.94;58.95;101318.47;10367056;28;20041;-61
2024/02/14 09:45:54;;;;;;;1.10;0.73;;;;;;;11.95;59.70;101316.63;10368234;28;20064;-60
2024/02/14 09:50:56;;;;;;;2.03;1.10;;;;;;;11.93;59.71;101316.88;10381271;28;20512;-61
2024/02/14 09:55:57;;;;;;;1.25;0.75;;;;;;;11.93;59.60;101316.88;10407672;28;20029;-61
2024/02/14 10:01:01;;;;;;;1.67;1.05;;;;;;;11.94;59.96;101315.00;10407375;28;20026;-61
2024/02/14 10:06:01;;;;;;;2.53;1.13;;;;;;;11.94;60.07;101326.44;10408828;28;20079;-61
2024/02/14 10:11:04;;;;;;;2.05;1.30;;;;;;;11.95;59.13;101329.91;10389857;28;20100;-61
2024/02/14 10:16:07;;;;;;;1.30;1.00;;;;;;;11.94;58.89;101323.78;10368129;28;20034;-61
2024/02/14 10:21:14;;;;;;;1.60;1.10;;;;;;;11.93;58.88;101335.47;10368384;28;20374;-61
2024/02/14 10:26:14;;;;;;;1.30;0.90;;;;;;;11.95;59.05;101329.91;10368367;28;20101;-61
2024/02/14 10:31:21;;;;;;;1.40;1.10;;;;;;;11.95;60.25;101340.53;10366559;28;20025;-61
2024/02/14 10:36:21;;;;;;;1.88;1.13;;;;;;;11.95;59.16;101345.84;10367716;28;20617;-61
2024/02/14 10:41:22;;;;;;;1.40;0.90;;;;;;;11.94;60.03;101338.94;10365912;28;20025;-61
2024/02/14 10:46:25;;;;;;;1.92;0.80;;;;;;;11.95;60.05;101341.34;10367673;28;20035;-61
2024/02/14 10:51:25;;;;;;;0.70;0.60;;;;;;;11.96;59.29;101347.50;10365682;28;20068;-61
2024/02/14 10:56:28;;;;;;;1.77;0.93;;;;;;;11.96;59.24;101344.84;10379354;28;20030;-60
2024/02/14 11:01:31;;;;;;;2.65;1.00;;;;;;;11.96;60.06;101342.19;10357117;28;20084;-61
2024/02/14 11:06:33;;;;;;;1.98;1.48;;;;;;;11.95;59.03;101341.34;10366101;28;20613;-61
2024/02/14 11:11:33;;;;;;;1.13;1.00;;;;;;;11.96;59.00;101331.56;10391091;28;20042;-61
2024/02/14 11:16:35;;;;;;;1.80;0.93;;;;;;;11.95;59.78;101336.03;10365529;28;20456;-61
2024/02/14 11:21:42;;;;;;;2.20;1.42;;;;;;;11.96;58.83;101326.25;10365695;28;20370;-61
2024/02/14 11:26:52;;;;;;;2.28;1.23;;;;;;;11.96;59.21;101331.56;10373157;28;20030;-61
2024/02/14 11:32:00;;;;;;;1.52;0.98;;;;;;;11.96;60.04;101331.56;10387080;28;20026;-61
2024/02/14 11:37:00;;;;;;;1.50;1.00;;;;;;;11.97;59.27;101322.53;10373268;28;20030;-61
2024/02/14 11:42:01;;;;;;;1.67;1.08;;;;;;;11.95;59.01;101317.44;10374020;28;20361;-60
2024/02/14 11:47:02;;;;;;;2.08;0.98;;;;;;;11.96;60.28;101321.72;10374013;28;20033;-61
2024/02/14 11:52:04;;;;;;;2.33;1.20;;;;;;;11.96;59.03;101328.91;10373344;28;20025;-60
2024/02/14 11:57:04;;;;;;;1.52;0.98;;;;;;;11.96;59.37;101323.59;10372607;28;20034;-61
2024/02/14 12:02:04;;;;;;;1.55;0.90;;;;;;;11.95;59.19;101317.44;10371745;28;20390;-61
2024/02/14 12:07:05;;;;;;;2.75;1.08;;;;;;;11.96;59.78;101315.63;10373088;28;20080;-60
2024/02/14 12:12:05;;;;;;;1.53;1.03;;;;;;;11.96;59.58;101321.72;10411453;28;20038;-61
2024/02/14 12:17:06;;;;;;;1.70;0.80;;;;;;;11.97;59.15;101310.06;10412606;28;20295;-61
2024/02/14 12:22:17;;;;;;;1.33;0.82;;;;;;;11.97;58.81;101307.41;10413306;28;20044;-61
2024/02/14 12:27:18;;;;;;;1.20;0.90;;;;;;;11.97;59.35;101309.25;10411868;28;20034;-61
2024/02/14 12:32:19;;;;;;;3.00;1.00;;;;;;;11.97;59.85;101304.75;10418300;28;20022;-61
2024/02/14 12:37:19;;;;;;;2.15;1.30;;;;;;;11.97;60.20;101309.25;10371996;28;20084;-61
2024/02/14 12:42:25;;;;;;;1.35;0.80;;;;;;;11.97;59.45;101306.59;10370533;28;20028;-61
2024/02/14 12:47:31;;;;;;;2.13;1.27;;;;;;;11.97;59.87;101302.09;10371976;28;20036;-61
2024/02/14 12:52:31;;;;;;;1.92;0.95;;;;;;;11.97;59.94;101310.06;10370969;28;20049;-61
2024/02/14 12:57:31;;;;;;;1.85;0.98;;;;;;;11.97;59.37;101311.91;10369499;28;20029;-60
2024/02/14 13:02:32;;;;;;;0.83;0.70;;;;;;;11.97;59.95;101298.63;10369373;28;20030;-61
2024/02/14 13:07:33;;;;;;;1.08;0.73;;;;;;;11.96;59.97;101294.34;10373769;28;20844;-60
2024/02/14 13:12:34;;;;;;;2.42;1.48;;;;;;;11.97;60.28;101286.13;10380688;28;20033;-60
2024/02/14 13:17:34;;;;;;;0.97;0.70;;;;;;;11.97;59.63;101293.31;10370502;28;20334;-61
2024/02/14 13:22:34;;;;;;;1.73;0.90;;;;;;;11.98;59.96;101301.03;10370254;28;20280;-61
2024/02/14 13:27:35;;;;;;;1.70;0.97;;;;;;;11.97;59.01;101288.78;10370752;28;20277;-61
2024/02/14 13:32:35;;;;;;;1.17;0.82;;;;;;;11.97;59.99;101291.47;10368995;28;20293;-61
2024/02/14 13:37:36;;;;;;;2.35;1.10;;;;;;;11.98;60.24;101278.97;10369959;28;20029;-60
2024/02/14 13:42:40;;;;;;;1.00;0.80;;;;;;;11.99;59.01;101288.56;10369264;28;20393;-61
2024/02/14 13:47:42;;;;;;;1.30;0.80;;;;;;;11.99;59.89;101284.03;10367728;28;20281;-61
2024/02/14 13:52:42;;;;;;;1.40;0.90;;;;;;;11.98;59.67;101282.44;10368793;28;20057;-61
2024/02/14 13:57:42;;;;;;;1.00;0.70;;;;;;;11.99;60.03;101285.91;10369299;28;20116;-60
2024/02/14 14:02:43;;;;;;;1.23;0.70;;;;;;;11.98;59.87;101279.78;10367578;28;20017;-60
2024/02/14 14:07:43;;;;;;;1.67;0.77;;;;;;;11.97;59.12;101278.16;10373336;28;20053;-60
2024/02/14 14:12:44;;;;;;;0.87;0.60;;;;;;;11.98;60.16;101273.66;10388554;28;20041;-61
2024/02/14 14:17:44;;;;;;;1.02;0.73;;;;;;;11.99;60.03;101280.59;10367277;28;20276;-61
2024/02/14 14:22:44;;;;;;;1.93;1.80;;;;;;;11.98;59.24;101277.13;10366528;28;20043;-61
2024/02/14 14:27:45;;;;;;;0.93;0.60;;;;;;;11.98;60.12;101276.31;10368036;28;20379;-60
2024/02/14 14:32:45;;;;;;;1.83;1.50;;;;;;;11.99;59.36;101276.06;10368175;28;20308;-60
2024/02/14 14:37:45;;;;;;;0.90;0.80;;;;;;;11.99;59.20;101275.28;10366872;28;20033;-60
2024/02/14 14:42:46;;;;;;;0.93;0.70;;;;;;;11.99;59.06;101267.28;10367155;28;20811;-60
2024/02/14 14:47:46;;;;;;;1.63;0.90;;;;;;;11.99;59.33;101269.94;10366288;28;20284;-61
2024/02/14 14:52:47;;;;;;;1.55;1.00;;;;;;;11.99;58.98;101256.66;10365567;28;20918;-61
2024/02/14 14:57:47;;;;;;;1.45;0.75;;;;;;;11.99;59.95;101273.41;10366993;28;20088;-60
2024/02/14 15:02:49;;;;;;;1.38;0.88;;;;;;;12.00;60.03;101276.88;10367095;28;20029;-61
2024/02/14 15:07:50;;;;;;;0.95;0.77;;;;;;;12.00;59.78;101275.03;10372067;28;20045;-61
2024/02/14 15:12:50;;;;;;;1.80;0.80;;;;;;;12.01;59.15;101273.16;10388297;28;20049;-61
2024/02/14 15:17:50;;;;;;;1.17;0.83;;;;;;;12.00;59.74;101269.72;10379711;28;20110;-61
2024/02/14 15:22:51;;;;;;;1.55;0.82;;;;;;;11.99;59.14;101273.41;10400799;28;20315;-61
2024/02/14 15:27:54;;;;;;;1.77;1.03;;;;;;;12.00;59.17;101275.03;10405731;28;20398;-61
2024/02/14 15:38:14;;;;;;;1.85;0.88;;;;;;;11.99;59.29;101277.94;10366492;28;20026;-61
2024/02/14 15:43:15;;;;;;;1.02;0.75;;;;;;;12.00;60.03;101279.53;10366304;28;20076;-60
2024/02/14 15:48:15;;;;;;;1.00;0.73;;;;;;;12.00;60.25;101279.53;10364648;28;20026;-61
2024/02/14 15:53:17;;;;;;;1.52;1.00;;;;;;;12.00;58.92;101274.22;10364691;28;20041;-61
2024/02/14 15:58:17;;;;;;;1.52;0.95;;;;;;;12.02;58.83;101276.63;10364612;28;20181;-61
2024/02/14 16:03:18;;;;;;;0.90;0.65;;;;;;;12.01;59.30;101278.50;10364869;28;20488;-61
2024/02/14 16:08:19;;;;;;;1.10;0.70;;;;;;;12.00;59.77;101275.03;10374345;28;20045;-60
2024/02/14 16:13:19;;;;;;;1.27;0.65;;;;;;;12.00;59.45;101276.88;10389428;28;20092;-61
2024/02/14 16:18:19;;;;;;;1.10;0.60;;;;;;;12.00;59.41;101280.34;10372800;28;20097;-61
2024/02/14 16:23:19;;;;;;;1.43;0.80;;;;;;;12.01;59.84;101278.50;10371476;28;20312;-61
2024/02/14 16:28:20;;;;;;;1.40;0.80;;;;;;;12.00;59.08;101282.19;10372166;28;20291;-61
2024/02/14 16:33:20;;;;;;;1.00;0.77;;;;;;;12.00;59.10;101276.88;10411456;28;20041;-61
2024/02/14 16:38:20;;;;;;;1.35;0.75;;;;;;;12.02;60.11;101276.63;10401761;28;20287;-61
2024/02/14 16:43:21;;;;;;;0.70;0.60;;;;;;;12.02;58.88;101281.94;10411630;28;20040;-61
2024/02/14 16:48:21;;;;;;;0.90;0.60;;;;;;;12.03;59.03;101276.41;10412570;28;20291;-61
2024/02/14 16:53:22;;;;;;;1.83;1.10;;;;;;;12.03;59.85;101278.25;10412476;28;20318;-61
2024/02/14 16:58:22;;;;;;;1.35;1.00;;;;;;;12.01;59.40;101286.47;10411944;28;20029;-61
2024/02/14 17:03:22;;;;;;;1.33;0.93;;;;;;;12.02;59.09;101293.38;10412325;28;20026;-61
2024/02/14 17:08:22;;;;;;;1.73;1.10;;;;;;;12.01;59.00;101297.09;10364853;28;20707;-61
2024/02/14 17:13:23;;;;;;;1.88;1.27;;;;;;;12.02;60.49;101309.34;10372010;28;20301;-60
2024/02/14 17:18:24;;;;;;;1.15;0.85;;;;;;;12.01;59.87;101310.38;10368515;28;20752;-61
2024/02/14 17:23:24;;;;;;;1.35;0.93;;;;;;;12.02;59.81;101322.63;10367600;28;20399;-61
2024/02/14 17:28:25;;;;;;;1.37;1.07;;;;;;;12.01;60.28;101313.03;10367856;28;20105;-59
2024/02/14 17:33:25;;;;;;;1.10;0.68;;;;;;;12.02;58.89;101327.94;10370619;28;20292;-60
2024/02/14 17:38:27;;;;;;;1.95;0.85;;;;;;;12.02;60.04;101332.44;10367830;28;20278;-60
2024/02/14 17:43:28;;;;;;;1.27;0.90;;;;;;;12.02;60.02;101333.25;10367654;28;20084;-60
2024/02/14 17:48:28;;;;;;;0.95;0.88;;;;;;;12.02;60.21;101343.06;10367279;28;20535;-60
2024/02/14 17:53:29;;;;;;;1.55;1.00;;;;;;;12.01;59.01;101347.59;10367522;28;20033;-60
2024/02/14 17:58:30;;;;;;;1.85;1.10;;;;;;;12.02;60.03;101351.06;10367061;28;20412;-60
2024/02/14 18:03:30;;;;;;;1.02;0.80;;;;;;;12.01;59.43;101350.25;10366820;28;20084;-60
2024/02/14 18:08:31;;;;;;;1.00;0.70;;;;;;;12.04;59.86;101357.75;10377415;28;20119;-60
2024/02/14 18:13:31;;;;;;;1.07;0.80;;;;;;;12.04;59.03;101365.72;10407132;28;20709;-59
2024/02/14 18:18:32;;;;;;;2.10;1.25;;;;;;;12.03;60.14;101364.09;10407353;28;20276;-59
2024/02/14 18:23:33;;;;;;;1.30;0.88;;;;;;;12.04;60.53;101379.00;10407026;28;20472;-60
2024/02/14 18:28:33;;;;;;;1.95;1.10;;;;;;;12.04;60.32;101372.88;10405333;28;20261;-60
2024/02/14 18:33:34;;;;;;;1.85;1.38;;;;;;;12.03;59.73;101380.06;10375670;28;20014;-60
2024/02/14 18:38:36;;;;;;;2.05;0.80;;;;;;;12.03;59.62;101377.38;10366022;28;20052;-60
2024/02/14 18:43:36;;;;;;;1.50;1.10;;;;;;;12.03;58.96;101380.06;10364284;28;20555;-58
2024/02/14 18:48:39;;;;;;;1.55;1.10;;;;;;;12.04;58.77;101380.84;10364197;28;20059;-59
2024/02/14 18:53:41;;;;;;;1.02;0.93;;;;;;;12.04;59.49;101386.16;10363978;28;20030;-60
2024/02/14 18:58:41;;;;;;;1.40;0.80;;;;;;;12.04;59.36;101386.16;10363832;28;20026;-60
2024/02/14 19:03:41;;;;;;;2.17;1.23;;;;;;;12.03;59.92;101388.03;10365187;28;20026;-60
2024/02/14 19:08:42;;;;;;;1.50;1.00;;;;;;;12.03;59.14;101385.38;10376812;28;20292;-60
2024/02/14 19:13:43;;;;;;;1.95;1.27;;;;;;;12.04;59.45;101378.19;10405541;28;20298;-60
2024/02/14 19:18:44;;;;;;;2.13;1.20;;;;;;;12.04;60.32;101375.53;10403926;28;20276;-59
2024/02/14 19:23:45;;;;;;;1.70;1.33;;;;;;;12.05;60.29;101390.44;10405539;28;20022;-60
2024/02/14 19:28:46;;;;;;;1.48;0.88;;;;;;;12.03;59.25;101393.34;10405416;28;20477;-59
2024/02/14 19:33:46;;;;;;;1.35;1.02;;;;;;;12.05;58.97;101393.91;10399192;28;20088;-59
2024/02/14 19:38:46;;;;;;;1.45;1.02;;;;;;;12.05;59.00;101390.44;10364864;28;20041;-59
2024/02/14 19:43:47;;;;;;;1.67;1.30;;;;;;;12.05;59.45;101393.09;10364771;28;20075;-60
2024/02/14 19:48:48;;;;;;;1.40;1.10;;;;;;;12.05;59.65;101399.22;10371781;28;20358;-60
2024/02/14 19:53:48;;;;;;;2.17;1.98;;;;;;;12.04;59.54;101394.94;10370713;28;20032;-59
2024/02/14 19:58:48;;;;;;;1.40;1.10;;;;;;;12.04;59.28;101397.59;10371549;28;20519;-60
2024/02/14 20:03:49;;;;;;;1.30;1.10;;;;;;;12.05;59.09;101404.53;10371587;28;20022;-59
2024/02/14 20:08:49;;;;;;;1.23;0.90;;;;;;;12.04;60.03;101410.09;10397342;28;20304;-59
2024/02/14 20:13:50;;;;;;;1.75;1.52;;;;;;;12.05;59.01;101420.47;10370938;28;20292;-60
2024/02/14 20:18:50;;;;;;;1.48;0.93;;;;;;;12.05;59.19;101412.50;10369745;28;20508;-60
2024/02/14 20:23:51;;;;;;;1.60;1.07;;;;;;;12.04;59.49;101413.56;10370820;28;20021;-60
2024/02/14 20:28:51;;;;;;;1.47;1.10;;;;;;;12.05;59.91;101425.81;10382224;28;20291;-60
2024/02/14 20:33:52;;;;;;;1.30;0.90;;;;;;;12.05;59.79;101422.34;10396579;28;20295;-60
2024/02/14 20:38:55;;;;;;;1.63;1.10;;;;;;;12.05;58.88;101423.16;10369894;28;20036;-60
2024/02/14 20:43:56;;;;;;;2.13;1.10;;;;;;;12.06;59.58;101421.28;10377784;28;20018;-58
2024/02/14 20:48:56;;;;;;;1.10;0.90;;;;;;;12.05;59.64;101420.47;10397157;28;20494;-60
2024/02/14 20:53:56;;;;;;;2.03;1.40;;;;;;;12.07;59.41;101417.59;10409154;28;20495;-60
2024/02/14 20:58:58;;;;;;;1.30;0.97;;;;;;;12.07;59.21;101425.56;10410233;28;20029;-60
2024/02/14 21:03:58;;;;;;;1.90;1.10;;;;;;;12.07;60.07;101429.03;10352326;28;20276;-60
2024/02/14 21:08:59;;;;;;;1.80;1.10;;;;;;;12.06;59.95;101437.25;10381660;28;20506;-60
2024/02/14 21:13:59;;;;;;;2.60;1.30;;;;;;;12.06;59.71;101434.59;10368817;28;20032;-60
2024/02/14 21:18:59;;;;;;;1.92;1.20;;;;;;;12.06;60.23;101432.72;10368577;28;20029;-59
2024/02/14 21:24:00;;;;;;;1.77;1.23;;;;;;;12.06;60.16;101429.25;10368760;28;20065;-59
2024/02/14 21:29:00;;;;;;;1.60;1.20;;;;;;;12.06;59.49;101430.06;10367837;28;20025;-59
2024/02/14 21:34:01;;;;;;;1.65;1.27;;;;;;;12.06;59.69;101440.72;10367815;28;20307;-59
2024/02/14 21:39:03;;;;;;;1.17;1.08;;;;;;;12.06;60.06;101427.41;10388755;28;20026;-60
2024/02/14 21:44:03;;;;;;;3.13;1.88;;;;;;;12.05;59.90;101439.09;10408589;28;20440;-59
2024/02/14 21:49:06;;;;;;;3.25;1.42;;;;;;;12.06;59.56;101431.94;10407942;28;20053;-60
2024/02/14 21:54:06;;;;;;;2.30;1.70;;;;;;;12.06;59.85;101429.25;10397025;28;20122;-60
2024/02/14 21:59:07;;;;;;;1.97;1.40;;;;;;;12.06;59.86;101429.25;10366847;28;20034;-59
2024/02/14 22:04:08;;;;;;;2.05;1.13;;;;;;;12.07;59.46;101437.00;10367175;28;20648;-60
2024/02/14 22:09:09;;;;;;;1.95;1.30;;;;;;;12.06;59.73;101435.38;10379424;28;20056;-59
2024/02/14 22:14:09;;;;;;;2.55;1.45;;;;;;;12.08;60.09;101438.66;10365425;28;20304;-60
2024/02/14 22:19:12;;;;;;;1.40;1.17;;;;;;;12.08;60.39;101448.47;10366054;28;20436;-60
2024/02/14 22:24:12;;;;;;;2.60;1.60;;;;;;;12.07;58.99;101439.66;10365081;28;20030;-60
2024/02/14 22:29:13;;;;;;;1.73;1.40;;;;;;;12.07;59.58;101434.34;10365883;28;20022;-59
2024/02/14 22:34:13;;;;;;;2.78;1.40;;;;;;;12.07;59.41;101426.38;10365736;28;20044;-60
2024/02/14 22:39:14;;;;;;;2.03;1.20;;;;;;;12.07;60.13;101438.84;10365581;28;20410;-60
2024/02/14 22:44:14;;;;;;;2.03;1.47;;;;;;;12.07;60.10;101442.31;10365623;28;20432;-58
2024/02/14 22:49:14;;;;;;;2.43;1.57;;;;;;;12.07;59.60;101441.50;10365357;28;20268;-60
2024/02/14 22:54:15;;;;;;;1.63;1.20;;;;;;;12.07;59.11;101442.31;10365359;28;20293;-60
2024/02/14 22:59:15;;;;;;;1.80;1.38;;;;;;;12.07;59.10;101450.28;10364817;28;20095;-60
2024/02/14 23:04:15;;;;;;;1.50;1.10;;;;;;;12.07;60.03;101458.28;10350555;28;20037;-60
2024/02/14 23:09:16;;;;;;;2.23;1.47;;;;;;;12.08;59.76;101454.59;10379880;28;20779;-60